Urutai, Brazil
Current Conditions -  °F | °C
As of 2:00 AM on Tuesday 23 Dec 2014 (Local Time) from SBGO Reporting Station
Light Rain Light Rain  
Wind Chill: 72°   Ceiling: 7000
Heat Index: 72°   Visibility: 5mi
Dew Point: 68°   Wind: 3mph
Humidity: 88%   Direction: 260°W
Pressure: 30.03"   Gusts: NA
Location:  17.46°S, 48.2°W
Report Text: SBGO 230400Z 26003KT 8000 -RA SCT003 OVC070 22/20 Q1017
Loading
Personal Weather Stations






























Interactive Weather Map New forecast layout! Learn more

10-Day Weather Forecast

Advertisements
Track Severe Weather on mobile